Terminal Aerodrome Forecast
Issued by NWS Tulsa, OK

Home | Current Version | Previous Version | Text Only | Print | Product List | Glossary On
Versions: 1 2 3 4 5 6 7 8 9 10 11 12 13 14
000
FTUS44 KTSA 261100
TAFTUL
TAF
KTUL 261120Z 2612/2712 20004KT P6SM OVC110
     FM261700 31015G23KT P6SM SCT250
     FM270200 34009KT P6SM SCT250=

USA.gov is the U.S. government's official web portal to all federal, state and local government web resources and services.